Time;durP1;ratioP1;P1;durP2;ratioP2;P2;SDS_P1;SDS_P2;PMS_P1;PMS_P2;Temp;Humidity;BMP_temperature;BMP_pressure;BME280_temperature;BME280_humidity;BME280_pressure;Samples;Min_cycle;Max_cycle;Signal;HPM_P1;HPM_P2
2022/05/22 00:01:45;;;;;;;5.47;4.20;;;;;;;;;;6155760;23;20009;-65
2022/05/22 00:04:12;;;;;;;6.35;3.80;;;;;;;;;;6155302;23;20002;-65
2022/05/22 00:06:38;;;;;;;4.72;3.35;;;;;;;;;;6157208;23;20014;-65
2022/05/22 00:09:05;;;;;;;7.82;4.18;;;;;;;;;;6157533;23;20005;-65
2022/05/22 00:11:31;;;;;;;7.28;3.70;;;;;;;;;;6157725;23;20024;-68
2022/05/22 00:13:57;;;;;;;4.93;3.55;;;;;;;;;;6157624;23;20002;-67
2022/05/22 00:16:40;;;;;;;4.82;3.63;;;;;;;;;;6157156;23;20052;-65
2022/05/22 00:19:15;;;;;;;5.88;3.30;;;;;;;;;;6157408;23;20002;-64
2022/05/22 00:21:41;;;;;;;7.68;3.60;;;;;;;;;;6131039;23;20012;-67
2022/05/22 00:24:07;;;;;;;5.70;3.70;;;;;;;;;;6157213;23;20033;-65
2022/05/22 00:26:34;;;;;;;6.65;3.55;;;;;;;;;;6157282;23;20025;-66
2022/05/22 00:29:00;;;;;;;5.43;3.22;;;;;;;;;;6157303;23;20005;-65
2022/05/22 00:31:26;;;;;;;6.93;3.55;;;;;;;;;;6157044;23;20022;-65
2022/05/22 00:33:52;;;;;;;5.32;3.35;;;;;;;;;;6157561;23;20029;-65
2022/05/22 00:36:18;;;;;;;5.43;3.78;;;;;;;;;;6157205;23;20013;-65
2022/05/22 00:38:44;;;;;;;6.85;3.60;;;;;;;;;;6156943;23;19998;-65
2022/05/22 00:41:11;;;;;;;5.15;3.65;;;;;;;;;;6157181;23;20006;-65
2022/05/22 00:43:39;;;;;;;5.80;3.67;;;;;;;;;;6157398;23;20089;-65
2022/05/22 00:46:07;;;;;;;8.68;3.63;;;;;;;;;;6130765;23;20052;-65
2022/05/22 00:48:33;;;;;;;5.80;3.63;;;;;;;;;;6157133;23;20005;-65
2022/05/22 00:51:14;;;;;;;6.35;3.40;;;;;;;;;;6131033;23;20013;-65
2022/05/22 00:53:43;;;;;;;6.13;3.63;;;;;;;;;;6156989;23;20002;-65
2022/05/22 00:56:12;;;;;;;4.43;3.38;;;;;;;;;;6156875;23;20488;-65
2022/05/22 00:58:38;;;;;;;6.70;3.40;;;;;;;;;;6157076;23;20085;-65
2022/05/22 01:01:12;;;;;;;6.95;3.72;;;;;;;;;;6156729;23;19997;-65
2022/05/22 01:03:38;;;;;;;7.55;3.42;;;;;;;;;;6156821;23;20006;-65
2022/05/22 01:06:06;;;;;;;6.47;3.97;;;;;;;;;;6156806;23;20009;-65
2022/05/22 01:08:32;;;;;;;4.78;3.17;;;;;;;;;;6157249;23;20020;-65
2022/05/22 01:11:00;;;;;;;4.90;3.03;;;;;;;;;;6156889;23;20440;-65
2022/05/22 01:13:33;;;;;;;6.28;3.85;;;;;;;;;;6156786;23;20060;-65
2022/05/22 01:16:00;;;;;;;6.30;2.92;;;;;;;;;;6156645;23;20006;-65
2022/05/22 01:18:27;;;;;;;6.57;3.20;;;;;;;;;;6157070;23;20006;-65
2022/05/22 01:20:54;;;;;;;8.13;3.58;;;;;;;;;;6156725;23;20005;-65
2022/05/22 01:23:20;;;;;;;7.38;3.70;;;;;;;;;;6156589;23;19997;-65
2022/05/22 01:25:46;;;;;;;4.40;3.38;;;;;;;;;;6130398;23;20014;-65
2022/05/22 01:28:15;;;;;;;5.75;3.47;;;;;;;;;;6157064;23;20377;-65
2022/05/22 01:30:41;;;;;;;7.15;3.47;;;;;;;;;;6156312;23;20020;-65
2022/05/22 01:33:07;;;;;;;5.88;3.50;;;;;;;;;;6156569;23;20001;-65
2022/05/22 01:35:35;;;;;;;5.07;3.22;;;;;;;;;;6130346;23;20006;-67
2022/05/22 01:38:01;;;;;;;5.32;3.38;;;;;;;;;;6156647;23;20441;-65
2022/05/22 01:40:27;;;;;;;4.03;2.60;;;;;;;;;;6156897;23;20333;-65
2022/05/22 01:42:53;;;;;;;4.65;3.22;;;;;;;;;;6157226;23;20029;-65
2022/05/22 01:45:21;;;;;;;8.73;3.15;;;;;;;;;;6156456;23;20014;-65
2022/05/22 01:47:47;;;;;;;5.85;3.05;;;;;;;;;;6156441;23;20082;-65
2022/05/22 01:50:14;;;;;;;6.95;3.50;;;;;;;;;;6156254;23;20080;-66
2022/05/22 01:52:40;;;;;;;4.40;3.30;;;;;;;;;;6156694;23;20002;-65
2022/05/22 01:55:07;;;;;;;6.18;3.60;;;;;;;;;;6156457;23;20012;-65
2022/05/22 01:57:33;;;;;;;4.13;3.05;;;;;;;;;;6156673;23;20013;-65
2022/05/22 01:59:59;;;;;;;3.47;3.00;;;;;;;;;;6156441;23;20001;-65
2022/05/22 02:02:25;;;;;;;5.45;3.60;;;;;;;;;;6156692;23;20029;-65
2022/05/22 02:04:52;;;;;;;5.40;3.38;;;;;;;;;;6156287;23;20004;-65
2022/05/22 02:10:03;;;;;;;6.13;3.40;;;;;;;;;;6156337;23;20060;-65
2022/05/22 02:12:30;;;;;;;6.00;3.42;;;;;;;;;;6156804;23;20029;-65
2022/05/22 02:14:56;;;;;;;7.65;3.30;;;;;;;;;;6130140;23;20020;-65
2022/05/22 02:17:22;;;;;;;9.15;3.25;;;;;;;;;;6130019;23;20003;-65
2022/05/22 02:19:48;;;;;;;4.47;3.10;;;;;;;;;;6156098;23;20008;-65
2022/05/22 02:22:14;;;;;;;3.67;2.67;;;;;;;;;;6156278;23;20441;-65
2022/05/22 02:24:40;;;;;;;7.18;3.47;;;;;;;;;;6156214;23;20001;-65
2022/05/22 02:27:07;;;;;;;6.00;3.45;;;;;;;;;;6156039;23;20013;-66
2022/05/22 02:29:36;;;;;;;4.45;3.40;;;;;;;;;;6156030;23;20077;-65
2022/05/22 02:32:03;;;;;;;5.10;3.20;;;;;;;;;;6155779;23;20021;-66
2022/05/22 02:34:29;;;;;;;6.60;3.30;;;;;;;;;;6155989;23;20448;-65
2022/05/22 02:36:55;;;;;;;6.10;3.15;;;;;;;;;;6155942;23;20005;-65
2022/05/22 02:39:21;;;;;;;5.78;3.63;;;;;;;;;;6156139;23;20437;-65
2022/05/22 02:41:47;;;;;;;4.63;3.30;;;;;;;;;;6156425;23;20013;-65
2022/05/22 02:44:13;;;;;;;7.45;3.20;;;;;;;;;;6156010;23;20002;-65
2022/05/22 02:46:41;;;;;;;6.22;3.65;;;;;;;;;;6155895;23;20100;-65
2022/05/22 02:49:08;;;;;;;8.48;5.25;;;;;;;;;;6155824;23;19998;-65
2022/05/22 02:51:34;;;;;;;5.20;3.58;;;;;;;;;;6156168;23;20341;-66
2022/05/22 02:54:00;;;;;;;4.40;3.60;;;;;;;;;;6155747;23;19998;-65
2022/05/22 02:56:27;;;;;;;5.55;3.58;;;;;;;;;;6155884;23;20002;-65
2022/05/22 02:58:53;;;;;;;6.55;3.85;;;;;;;;;;6156224;23;20004;-65
2022/05/22 03:01:20;;;;;;;7.28;3.30;;;;;;;;;;6155747;23;20002;-65
2022/05/22 03:03:46;;;;;;;5.53;3.70;;;;;;;;;;6155757;23;20059;-65
2022/05/22 03:08:57;;;;;;;4.97;3.47;;;;;;;;;;6155837;23;20016;-65
2022/05/22 03:11:23;;;;;;;6.32;3.95;;;;;;;;;;6156040;23;20005;-65
2022/05/22 03:13:49;;;;;;;8.20;4.22;;;;;;;;;;6155740;23;20057;-65
2022/05/22 03:16:16;;;;;;;5.20;4.13;;;;;;;;;;6155354;23;20072;-65
2022/05/22 03:18:42;;;;;;;6.50;3.55;;;;;;;;;;6155703;23;20002;-65
2022/05/22 03:21:08;;;;;;;4.50;3.63;;;;;;;;;;6155740;23;20005;-65
2022/05/22 03:23:34;;;;;;;9.07;3.50;;;;;;;;;;6155740;23;20001;-66
2022/05/22 03:26:00;;;;;;;5.82;3.33;;;;;;;;;;6155669;23;20211;-65
2022/05/22 03:28:26;;;;;;;6.85;3.80;;;;;;;;;;6155701;23;20008;-64
2022/05/22 03:30:52;;;;;;;15.20;4.47;;;;;;;;;;6155365;23;20033;-65
2022/05/22 03:33:18;;;;;;;7.32;4.30;;;;;;;;;;6155338;23;20006;-65
2022/05/22 03:35:44;;;;;;;6.40;4.28;;;;;;;;;;6155944;23;20092;-64
2022/05/22 03:38:10;;;;;;;6.45;4.13;;;;;;;;;;6155651;23;19998;-65
2022/05/22 03:40:45;;;;;;;5.20;3.90;;;;;;;;;;6155397;23;20442;-63
2022/05/22 03:43:12;;;;;;;7.97;4.22;;;;;;;;;;6155662;23;20042;-64
2022/05/22 03:45:38;;;;;;;7.95;4.57;;;;;;;;;;6155293;23;20005;-64
2022/05/22 03:48:04;;;;;;;9.00;5.38;;;;;;;;;;6155479;23;20060;-65
2022/05/22 03:50:30;;;;;;;7.57;4.20;;;;;;;;;;6155363;23;20516;-65
2022/05/22 03:52:56;;;;;;;9.88;4.25;;;;;;;;;;6155595;23;20010;-65
2022/05/22 03:55:23;;;;;;;7.75;3.88;;;;;;;;;;6155609;23;19997;-64
2022/05/22 03:57:49;;;;;;;5.07;4.10;;;;;;;;;;6155497;23;20095;-65
2022/05/22 04:00:17;;;;;;;6.38;4.15;;;;;;;;;;6155810;23;20299;-65
2022/05/22 04:02:43;;;;;;;6.00;3.60;;;;;;;;;;6155194;23;20080;-64
2022/05/22 04:05:10;;;;;;;7.97;4.10;;;;;;;;;;6155530;23;20002;-65
2022/05/22 04:07:40;;;;;;;7.70;4.03;;;;;;;;;;6155833;23;20081;-65
2022/05/22 04:10:07;;;;;;;5.03;3.70;;;;;;;;;;6155990;23;20029;-65
2022/05/22 04:12:33;;;;;;;7.32;4.13;;;;;;;;;;6155978;23;20425;-65
2022/05/22 04:14:59;;;;;;;5.93;4.15;;;;;;;;;;6155486;23;20006;-65
2022/05/22 04:17:25;;;;;;;6.32;4.05;;;;;;;;;;6155097;23;20081;-66
2022/05/22 04:19:51;;;;;;;7.35;4.43;;;;;;;;;;6155341;23;20009;-65
2022/05/22 04:22:17;;;;;;;6.43;4.05;;;;;;;;;;6155446;23;20001;-65
2022/05/22 04:25:17;;;;;;;6.28;4.35;;;;;;;;;;6155621;23;20076;-65
2022/05/22 04:27:40;;;;;;;6.13;4.20;;;;;;;;;;6150806;23;20076;-65
2022/05/22 04:30:06;;;;;;;5.70;4.20;;;;;;;;;;6155268;23;20012;-65
2022/05/22 04:32:32;;;;;;;5.28;4.03;;;;;;;;;;6129141;23;20033;-65
2022/05/22 04:34:58;;;;;;;7.45;3.90;;;;;;;;;;6155182;23;20002;-65
2022/05/22 04:37:24;;;;;;;5.13;4.18;;;;;;;;;;6155306;23;20042;-65
2022/05/22 04:39:51;;;;;;;7.03;4.50;;;;;;;;;;6155571;23;20059;-65
2022/05/22 04:42:17;;;;;;;6.15;4.57;;;;;;;;;;6155724;23;20005;-64
2022/05/22 04:44:43;;;;;;;7.28;4.80;;;;;;;;;;6155141;23;20002;-65
2022/05/22 04:47:09;;;;;;;6.82;4.20;;;;;;;;;;6155104;23;20021;-65
2022/05/22 04:49:35;;;;;;;6.63;4.55;;;;;;;;;;6155249;23;20052;-65
2022/05/22 04:52:01;;;;;;;8.82;4.97;;;;;;;;;;6156333;23;20006;-65
2022/05/22 04:54:27;;;;;;;5.95;5.35;;;;;;;;;;6157011;23;20005;-64
2022/05/22 04:56:54;;;;;;;9.05;5.40;;;;;;;;;;6157077;23;20005;-64
2022/05/22 04:59:20;;;;;;;8.32;5.15;;;;;;;;;;6156778;23;19997;-65
2022/05/22 05:01:46;;;;;;;6.40;4.50;;;;;;;;;;6156872;23;20515;-65
2022/05/22 05:04:13;;;;;;;5.85;4.78;;;;;;;;;;6157302;23;20028;-64
2022/05/22 05:06:39;;;;;;;6.32;5.18;;;;;;;;;;6157167;23;20060;-64
2022/05/22 05:09:05;;;;;;;6.78;5.22;;;;;;;;;;6157279;23;20084;-64
2022/05/22 05:11:31;;;;;;;10.93;5.40;;;;;;;;;;6157066;23;20012;-65
2022/05/22 05:13:57;;;;;;;8.05;5.30;;;;;;;;;;6156849;23;20076;-65
2022/05/22 05:16:23;;;;;;;9.15;5.00;;;563.20;2432.00;;;;;;6157127;23;20354;-67
2022/05/22 05:18:49;;;;;;;7.85;5.85;;;538.50;2406.40;;;;;;6157079;23;20040;-65
2022/05/22 05:21:17;;;;;;;9.73;4.95;;;538.40;2406.40;;;;;;6156662;23;20424;-65
2022/05/22 05:23:43;;;;;;;6.95;5.15;;;538.40;2406.40;;;;;;6156586;23;20089;-64
2022/05/22 05:26:09;;;;;;;8.30;4.57;;;;;;;;;;6157003;23;20050;-65
2022/05/22 05:28:36;;;;;;;6.43;4.47;;;;;;;;;;6156583;23;20476;-65
2022/05/22 05:31:03;;;;;;;5.47;4.40;;;;;;;;;;6156587;23;20040;-65
2022/05/22 05:33:32;;;;;;;7.97;4.93;;;563.20;2432.00;;;;;;6156505;23;20448;-65
2022/05/22 05:35:58;;;;;;;5.85;4.63;;;563.30;2432.00;;;;;;6157040;23;20068;-65
2022/05/22 05:38:23;;;;;;;5.95;4.50;;;563.30;2432.00;;;;;;6156932;23;20036;-65
2022/05/22 05:40:49;;;;;;;7.68;4.88;;;563.30;2432.00;;;;;;6156405;23;20325;-66
2022/05/22 05:43:16;;;;;;;6.35;5.20;;;563.30;2432.00;;;;;;6156393;23;20017;-68
2022/05/22 05:45:43;;;;;;;9.05;4.82;;;;;;;;;;6156494;23;20044;-65
2022/05/22 05:48:09;;;;;;;6.22;5.05;;;;;;;;;;6156480;23;20002;-66
2022/05/22 05:50:35;;;;;;;7.45;5.75;;;;;;;;;;6156497;23;20033;-65
2022/05/22 05:53:01;;;;;;;8.10;6.47;;;;;;;;;;6156706;23;20009;-65
2022/05/22 05:55:28;;;;;;;9.73;5.50;;;;;;;;;;6156704;23;20307;-65
2022/05/22 05:57:54;;;;;;;7.65;5.68;;;;;;;;;;6156535;23;20328;-65
2022/05/22 06:00:22;;;;;;;5.57;4.72;;;;;;;;;;6156603;23;20417;-66
2022/05/22 06:02:48;;;;;;;6.40;5.05;;;;;;;;;;6155823;23;20060;-65
2022/05/22 06:05:15;;;;;;;6.47;5.10;;;;;;;;;;6156344;23;20021;-65
2022/05/22 06:07:41;;;;;;;7.10;5.20;;;;;;;;;;6156319;23;20429;-65
2022/05/22 06:10:08;;;;;;;7.00;4.90;;;;;;;;;;6156371;23;20021;-65
2022/05/22 06:12:34;;;;;;;6.72;4.97;;;;;;;;;;6156889;23;20369;-65
2022/05/22 06:15:01;;;;;;;7.93;5.18;;;;;;;;;;6156179;23;20009;-65
2022/05/22 06:17:36;;;;;;;5.45;4.72;;;;;;;;;;6156470;23;20373;-65
2022/05/22 06:20:06;;;;;;;7.80;5.60;;;;;;;;;;6156407;23;20010;-65
2022/05/22 06:22:33;;;;;;;6.60;5.95;;;;;;;;;;6156574;23;20372;-65
2022/05/22 06:24:59;;;;;;;10.18;5.15;;;;;;;;;;6156554;23;20016;-65
2022/05/22 06:27:25;;;;;;;7.40;4.60;;;;;;;;;;6155888;23;20010;-65
2022/05/22 06:29:51;;;;;;;6.82;5.30;;;;;;;;;;6130494;23;20017;-65
2022/05/22 06:32:18;;;;;;;6.28;4.80;;;;;;;;;;6155778;23;20021;-65
2022/05/22 06:34:47;;;;;;;8.27;5.07;;;;;;;;;;6155923;23;20048;-65
2022/05/22 06:37:16;;;;;;;6.65;5.38;;;;;;;;;;6156396;23;20029;-65
2022/05/22 06:39:51;;;;;;;6.60;5.85;;;;;;;;;;6156251;23;20330;-66
2022/05/22 06:42:28;;;;;;;8.57;6.00;;;;;;;;;;6156188;23;19994;-65
2022/05/22 06:45:14;;;;;;;7.65;5.88;;;;;;;;;;6129218;23;20024;-64
2022/05/22 06:47:40;;;;;;;9.93;6.10;;;;;;;;;;6156244;23;20095;-65
2022/05/22 06:50:09;;;;;;;7.07;5.82;;;;;;;;;;6155975;23;20006;-65
2022/05/22 06:52:35;;;;;;;8.60;6.20;;;;;;;;;;6155604;23;20012;-65
2022/05/22 06:55:02;;;;;;;7.38;6.07;;;564.00;2432.00;;;;;;6156234;23;20362;-65
2022/05/22 06:57:28;;;;;;;7.15;5.65;;;;;;;;;;6156056;23;20001;-65
2022/05/22 06:59:58;;;;;;;6.97;5.60;;;;;;;;;;6155813;23;20005;-65
2022/05/22 07:02:27;;;;;;;6.13;5.15;;;;;;;;;;6155706;23;20009;-65
2022/05/22 07:04:53;;;;;;;7.93;5.55;;;;;;;;;;6156104;23;20005;-66
2022/05/22 07:07:19;;;;;;;6.43;4.93;;;;;;;;;;6155588;23;20016;-66
2022/05/22 07:09:45;;;;;;;7.32;6.60;;;;;;;;;;6129502;23;20100;-65
2022/05/22 07:12:12;;;;;;;8.23;6.00;;;;;;;;;;6156081;23;20509;-66
2022/05/22 07:14:38;;;;;;;7.97;5.78;;;;;;;;;;6155560;23;20072;-65
2022/05/22 07:17:05;;;;;;;9.30;6.78;;;;;;;;;;6155806;23;20437;-65
2022/05/22 07:19:34;;;;;;;8.57;7.43;;;;;;;;;;6155583;23;20325;-65
2022/05/22 07:22:01;;;;;;;9.98;6.18;;;;;;;;;;6155610;23;20005;-65
2022/05/22 07:24:28;;;;;;;8.27;5.55;;;;;;;;;;6155448;23;20002;-65
2022/05/22 07:26:54;;;;;;;9.02;6.10;;;;;;;;;;6155892;23;20021;-66
2022/05/22 07:29:20;;;;;;;7.72;5.22;;;;;;;;;;6155652;23;20001;-66
2022/05/22 07:31:45;;;;;;;9.35;5.68;;;614.40;2432.00;;;;;;6155236;23;20155;-65
2022/05/22 07:34:11;;;;;;;6.20;5.60;;;614.60;2432.00;;;;;;6155407;23;20040;-66
2022/05/22 07:36:38;;;;;;;6.68;4.60;;;;;;;;;;6155500;23;20012;-66
2022/05/22 07:39:05;;;;;;;7.50;5.00;;;614.90;2432.00;;;;;;6155799;23;20005;-65
2022/05/22 07:41:31;;;;;;;8.90;5.32;;;;;;;;;;6155800;23;20016;-65
2022/05/22 07:43:58;;;;;;;10.20;5.18;;;;;;;;;;6155588;23;20389;-65
2022/05/22 07:46:24;;;;;;;12.27;6.03;;;;;;;;;;6155497;23;20009;-65
2022/05/22 07:48:50;;;;;;;6.43;5.10;;;;;;;;;;6155471;23;20001;-66
2022/05/22 07:51:16;;;;;;;6.78;5.15;;;;;;;;;;6155644;23;20001;-65
2022/05/22 07:53:43;;;;;;;6.55;4.60;;;;;;;;;;6155148;23;20441;-66
2022/05/22 07:56:09;;;;;;;24.30;7.85;;;;;;;;;;6155512;23;19997;-66
2022/05/22 07:58:35;;;;;;;14.15;5.78;;;;;;;;;;6155423;23;20009;-66
2022/05/22 08:01:02;;;;;;;15.60;7.00;;;;;;;;;;6155327;23;20425;-66
2022/05/22 08:03:28;;;;;;;12.23;5.60;;;;;;;;;;6155393;23;20001;-66
2022/05/22 08:05:55;;;;;;;9.88;5.20;;;;;;;;;;6155323;23;20005;-66
2022/05/22 08:08:22;;;;;;;11.48;5.45;;;;;;;;;;6155150;23;20005;-66
2022/05/22 08:10:48;;;;;;;7.45;5.03;;;;;;;;;;6155234;23;20052;-66
2022/05/22 08:13:14;;;;;;;12.30;4.95;;;;;;;;;;6155208;23;20499;-66
2022/05/22 08:15:41;;;;;;;10.05;7.82;;;;;;;;;;6154994;23;20009;-66
2022/05/22 08:18:08;;;;;;;7.20;3.97;;;;;;;;;;6155168;23;20002;-65
2022/05/22 08:20:34;;;;;;;7.95;5.45;;;;;;;;;;6155434;23;20006;-65
2022/05/22 08:23:11;;;;;;;8.63;4.50;;;;;;;;;;6155197;23;20361;-66
2022/05/22 08:25:37;;;;;;;5.50;4.90;;;;;;;;;;6155566;23;20006;-66
2022/05/22 08:28:04;;;;;;;6.68;4.82;;;;;;;;;;6157652;23;20053;-66
2022/05/22 08:30:31;;;;;;;9.35;4.65;;;;;;;;;;6157034;23;20025;-65
2022/05/22 08:32:57;;;;;;;11.30;5.03;;;691.30;2380.80;;;;;;6157404;23;20335;-65
2022/05/22 08:35:28;;;;;;;18.98;5.40;;;;;;;;;;6131089;23;20001;-67
2022/05/22 08:37:54;;;;;;;6.85;3.20;;;;;;;;;;6157533;23;20040;-66
2022/05/22 08:40:22;;;;;;;9.05;4.00;;;;;;;;;;6157059;23;20028;-65
2022/05/22 08:42:51;;;;;;;13.23;4.75;;;;;;;;;;6157719;23;20076;-65
2022/05/22 08:45:22;;;;;;;8.43;4.88;;;;;;;;;;6157033;23;20072;-65
2022/05/22 08:48:00;;;;;;;8.88;3.92;;;;;;;;;;6157099;23;20036;-65
2022/05/22 08:50:29;;;;;;;6.15;3.38;;;;;;;;;;6157054;23;20037;-66
2022/05/22 08:53:01;;;;;;;8.40;3.97;;;;;;;;;;6157033;23;20009;-66
2022/05/22 09:01:21;;;;;;;7.38;3.63;;;;;;;;;;6067018;23;20023;-65
2022/05/22 09:03:58;;;;;;;6.22;3.10;;;;;;;;;;6066716;23;20351;-65
2022/05/22 09:06:30;;;;;;;10.75;3.40;;;;;;;;;;6066848;23;20018;-66
2022/05/22 09:08:56;;;;;;;9.27;4.47;;;;;;;;;;6066790;23;20035;-65
2022/05/22 09:11:41;;;;;;;7.03;3.67;;;;;;;;;;6066333;23;20406;-66
2022/05/22 09:14:12;;;;;;;5.25;3.55;;;;;;;;;;6066908;23;20067;-66
2022/05/22 09:16:38;;;;;;;3.42;3.03;;;;;;;;;;6066546;23;20007;-66
2022/05/22 09:19:07;;;;;;;6.75;3.75;;;;;;;;;;6066522;23;20003;-66
2022/05/22 09:21:33;;;;;;;5.25;4.00;;;;;;;;;;6066757;23;20346;-66
2022/05/22 09:24:01;;;;;;;6.45;4.03;;;;;;;;;;6066196;23;20045;-66
2022/05/22 09:26:30;;;;;;;4.15;3.30;;;;;;;;;;6066068;23;20011;-66
2022/05/22 09:29:14;;;;;;;7.20;3.83;;;;;;;;;;6066513;23;20003;-66
2022/05/22 09:31:52;;;;;;;6.88;3.90;;;;;;;;;;6066086;23;20018;-66
2022/05/22 09:34:37;;;;;;;10.70;4.88;;;;;;;;;;6066193;23;20007;-66
2022/05/22 09:37:09;;;;;;;6.68;4.03;;;;;;;;;;6156345;23;20008;-66
2022/05/22 09:39:44;;;;;;;10.95;3.70;;;;;;;;;;6156596;23;20166;-66
2022/05/22 09:42:19;;;;;;;6.60;3.78;;;;;;;;;;6156872;23;20563;-66
2022/05/22 09:45:00;;;;;;;10.02;4.85;;;;;;;;;;6156619;23;20036;-66
2022/05/22 09:47:45;;;;;;;5.95;3.58;;;;;;;;;;6156419;23;20013;-65
2022/05/22 09:50:11;;;;;;;3.42;3.13;;;;;;;;;;6156637;23;20329;-65
2022/05/22 09:52:55;;;;;;;5.32;3.20;;;;;;;;;;6156390;23;20002;-66
2022/05/22 09:55:40;;;;;;;6.53;3.90;;;;;;;;;;6156433;23;20484;-65
2022/05/22 09:58:12;;;;;;;6.63;3.90;;;;;;;;;;6156331;23;20009;-65
2022/05/22 10:00:48;;;;;;;3.88;2.90;;;;;;;;;;6156777;23;20306;-66
2022/05/22 10:03:25;;;;;;;8.55;4.63;;;;;;;;;;6156268;23;20001;-66
2022/05/22 10:06:03;;;;;;;3.92;3.50;;;;;;;;;;6156539;23;20017;-66
2022/05/22 10:08:48;;;;;;;5.13;3.20;;;;;;;;;;6156196;23;20049;-66
2022/05/22 10:11:26;;;;;;;14.45;3.92;;;;;;;;;;6155870;23;20071;-66
2022/05/22 10:13:58;;;;;;;2.83;2.55;;;;;;;;;;6156001;23;20012;-65
2022/05/22 10:16:24;;;;;;;5.07;2.65;;;;;;;;;;6155682;23;19997;-66
2022/05/22 10:19:08;;;;;;;3.83;3.05;;;;;;;;;;6155442;23;20109;-66
2022/05/22 10:21:39;;;;;;;6.90;2.95;;;;;;;;;;6155795;23;20053;-66
2022/05/22 10:24:22;;;;;;;5.80;3.00;;;742.50;1587.20;;;;;;6155752;23;20002;-66
2022/05/22 10:27:03;;;;;;;5.63;2.80;;;742.40;1638.40;;;;;;6156049;23;20013;-66
2022/05/22 10:29:52;;;;;;;5.40;3.20;;;742.40;1715.20;;;;;;6156230;23;19998;-66
2022/05/22 10:32:28;;;;;;;4.00;3.15;;;;;;;;;;6155205;23;20096;-66
2022/05/22 10:35:08;;;;;;;4.70;3.00;;;;;;;;;;6155910;23;20081;-66
2022/05/22 10:37:34;;;;;;;7.55;3.00;;;;;;;;;;6155727;23;20006;-66
2022/05/22 10:40:07;;;;;;;11.32;3.03;;;;;;;;;;6156139;23;20302;-66
2022/05/22 10:42:46;;;;;;;5.88;3.08;;;;;;;;;;6156561;23;20021;-66
2022/05/22 10:45:35;;;;;;;21.00;3.15;;;;;;;;;;6155977;23;20080;-66
2022/05/22 10:48:07;;;;;;;3.65;2.50;;;;;;;;;;6155775;23;20022;-66
2022/05/22 10:50:33;;;;;;;4.95;3.10;;;;;;;;;;6155779;23;20430;-67
2022/05/22 10:52:59;;;;;;;4.65;2.92;;;;;;;;;;6155686;23;20084;-66
2022/05/22 10:55:28;;;;;;;9.90;2.88;;;;;;;;;;6155820;23;19997;-66
2022/05/22 10:57:57;;;;;;;9.35;3.35;;;;;;;;;;6155921;23;20337;-66
2022/05/22 11:00:23;;;;;;;4.45;2.80;;;;;;;;;;6156126;23;20361;-67
2022/05/22 11:02:49;;;;;;;4.72;2.80;;;;;;;;;;6155764;23;20005;-66
2022/05/22 11:05:22;;;;;;;4.82;2.78;;;;;;;;;;6155729;23;20004;-66
2022/05/22 11:07:49;;;;;;;7.65;3.20;;;;;;;;;;6129622;23;20460;-66
2022/05/22 11:10:23;;;;;;;3.55;2.70;;;;;;;;;;6155681;23;20051;-66
2022/05/22 11:13:00;;;;;;;5.53;3.10;;;;;;;;;;6156140;23;20005;-66
2022/05/22 11:15:28;;;;;;;4.18;3.10;;;;;;;;;;6155654;23;20024;-66
2022/05/22 11:18:06;;;;;;;5.80;3.20;;;;;;;;;;6156053;23;20010;-66
2022/05/22 11:20:32;;;;;;;4.47;3.20;;;;;;;;;;6155567;23;19998;-66
2022/05/22 11:23:11;;;;;;;13.70;3.33;;;;;;;;;;6155502;23;20016;-66
2022/05/22 11:25:46;;;;;;;5.72;2.88;;;;;;;;;;6155727;23;20048;-66
2022/05/22 11:28:31;;;;;;;3.38;2.65;;;;;;;;;;6156036;23;20052;-66
2022/05/22 11:31:15;;;;;;;4.70;3.13;;;794.20;1433.60;;;;;;6155603;23;20052;-66
2022/05/22 11:34:00;;;;;;;7.93;2.97;;;794.20;1433.60;;;;;;6155536;23;20001;-66
2022/05/22 11:36:35;;;;;;;10.75;3.45;;;794.20;1433.60;;;;;;6155964;23;20403;-66
2022/05/22 11:39:16;;;;;;;7.10;3.30;;;794.00;1433.60;;;;;;6155875;23;20322;-66
2022/05/22 11:41:52;;;;;;;5.93;3.90;;;794.00;1433.60;;;;;;6155679;23;20010;-66
2022/05/22 11:44:38;;;;;;;4.82;3.45;;;793.80;1433.60;;;;;;6155553;23;20001;-66
2022/05/22 11:47:10;;;;;;;4.10;2.92;;;;;;;;;;6155483;23;20037;-66
2022/05/22 11:49:40;;;;;;;7.75;3.10;;;;;;;;;;6155578;23;20131;-66
2022/05/22 11:52:53;;;;;;;7.63;3.40;;;;;;;;;;6155504;23;20010;-68
2022/05/22 11:55:15;;;;;;;4.55;3.20;;;793.90;1433.60;;;;;;6155000;23;20060;-66
2022/05/22 11:58:19;;;;;;;4.65;3.58;;;793.80;1459.20;;;;;;6155564;23;20025;-66
2022/05/22 12:01:04;;;;;;;5.93;3.42;;;;;;;;;;6155725;23;20005;-66
2022/05/22 12:03:54;;;;;;;4.63;3.10;;;793.70;1510.40;;;;;;6157283;23;20001;-66
2022/05/22 12:06:37;;;;;;;6.00;3.03;;;768.90;1459.20;;;;;;6157296;23;20009;-66
2022/05/22 12:09:06;;;;;;;4.10;2.75;;;;;;;;;;6157351;23;20001;-67
2022/05/22 12:12:10;;;;;;;5.03;3.20;;;768.40;1433.60;;;;;;6157732;23;20076;-66
2022/05/22 12:15:12;;;;;;;5.35;2.85;;;768.20;1459.20;;;;;;6157870;23;20010;-66
2022/05/22 12:17:55;;;;;;;5.57;2.90;;;768.50;1459.20;;;;;;6157426;23;20441;-66
2022/05/22 12:20:31;;;;;;;2.70;2.50;;;768.50;1433.60;;;;;;6157317;23;20164;-66
2022/05/22 12:23:13;;;;;;;4.88;2.70;;;768.50;1433.60;;;;;;6157236;23;20085;-67
2022/05/22 12:25:48;;;;;;;4.07;2.80;;;768.30;1459.20;;;;;;6157159;23;20417;-65
2022/05/22 12:28:26;;;;;;;4.82;3.20;;;768.40;1484.80;;;;;;6157094;23;20044;-66
2022/05/22 12:30:57;;;;;;;4.00;2.90;;;768.50;1459.20;;;;;;6156506;23;20014;-67
2022/05/22 12:33:27;;;;;;;8.35;3.33;;;768.60;1484.80;;;;;;6157493;23;20313;-66
2022/05/22 12:35:53;;;;;;;7.50;3.25;;;;;;;;;;6157217;23;20448;-66
2022/05/22 12:38:19;;;;;;;8.10;3.80;;;;;;;;;;6157310;23;20005;-66
2022/05/22 12:40:48;;;;;;;12.25;3.47;;;793.60;1484.80;;;;;;6157312;23;20081;-66
2022/05/22 12:43:18;;;;;;;7.32;3.08;;;768.90;1459.20;;;;;;6157480;23;20010;-67
2022/05/22 12:45:50;;;;;;;5.03;3.00;;;768.70;1433.60;;;;;;6156834;23;20005;-66
2022/05/22 12:48:37;;;;;;;4.90;2.80;;;768.80;1433.60;;;;;;6157052;23;20012;-66
2022/05/22 12:51:21;;;;;;;3.55;2.70;;;793.60;1433.60;;;;;;6156305;23;20048;-65
2022/05/22 12:53:51;;;;;;;3.88;2.80;;;793.60;1459.20;;;;;;6156733;23;20001;-65
2022/05/22 12:56:29;;;;;;;3.30;2.63;;;793.60;1459.20;;;;;;6156769;23;20004;-66
2022/05/22 12:59:20;;;;;;;4.43;2.33;;;768.90;1408.00;;;;;;6157309;23;20031;-66
2022/05/22 13:01:48;;;;;;;;;;;768.90;1408.00;;;;;;6155822;23;20160;-66
2022/05/22 13:04:20;;;;;;;16.92;5.38;;;768.90;1433.60;;;;;;6156155;23;19905;-66
2022/05/22 13:07:11;;;;;;;29.17;5.43;;;793.60;1459.20;;;;;;6156413;23;20018;-65
2022/05/22 13:09:51;;;;;;;18.85;12.98;;;768.90;1433.60;;;;;;6139457;23;20317;-64
2022/05/22 13:12:16;;;;;;;15.32;6.53;;;768.80;1433.60;;;;;;6156104;23;20012;-65
2022/05/22 13:14:50;;;;;;;7.90;3.92;;;768.90;1459.20;;;;;;6157043;23;20002;-64
2022/05/22 13:17:35;;;;;;;13.10;8.00;;;768.50;1459.20;;;;;;6156563;23;20013;-66
2022/05/22 13:20:04;;;;;;;8.50;5.72;;;768.30;1484.80;;;;;;6156839;23;20029;-65
2022/05/22 13:22:39;;;;;;;8.40;5.55;;;768.30;1484.80;;;;;;6156890;23;20048;-65
2022/05/22 13:25:07;;;;;;;46.25;36.38;;;;;;;;;;6156679;23;20002;-66
2022/05/22 13:27:40;;;;;;;22.80;15.13;;;768.10;1484.80;;;;;;6156292;23;20013;-66
2022/05/22 13:30:16;;;;;;;39.60;29.48;;;768.10;1484.80;;;;;;6154888;23;20010;-68
2022/05/22 13:33:05;;;;;;;34.70;26.70;;;743.30;1510.40;;;;;;6156282;23;20005;-66
2022/05/22 13:35:39;;;;;;;20.52;14.20;;;;;;;;;;6156357;23;20025;-67
2022/05/22 13:38:10;;;;;;;26.17;17.73;;;;;;;;;;6155638;23;20052;-66
2022/05/22 13:40:54;;;;;;;52.22;43.33;;;;;;;;;;6156254;23;20010;-65
2022/05/22 13:43:39;;;;;;;45.38;35.03;;;;;;;;;;6156442;23;20499;-65
2022/05/22 13:46:08;;;;;;;10.82;9.05;;;;;;;;;;6156140;23;20440;-65
2022/05/22 13:48:42;;;;;;;22.70;12.27;;;;;;;;;;6156145;23;20032;-64
2022/05/22 13:53:59;;;;;;;95.38;77.65;;;;;;;;;;6155963;23;20072;-67
2022/05/22 13:56:51;;;;;;;72.57;59.30;;;;;;;;;;6156222;23;19998;-66
2022/05/22 13:59:20;;;;;;;16.33;12.18;;;;;;;;;;6149988;23;20036;-67
2022/05/22 14:01:47;;;;;;;46.15;36.45;;;;;;;;;;6155766;23;20337;-66
2022/05/22 14:04:13;;;;;;;58.88;47.63;;;;;;;;;;6156137;23;20080;-67
2022/05/22 14:06:39;;;;;;;39.88;31.60;;;;;;;;;;6155959;23;20013;-66
2022/05/22 14:09:06;;;;;;;58.25;47.42;;;;;;;;;;6156045;23;20001;-66
2022/05/22 14:11:34;;;;;;;34.35;25.10;;;;;;;;;;6156396;23;20010;-65
2022/05/22 14:14:03;;;;;;;13.73;7.60;;;;;;;;;;6156047;23;20004;-66
2022/05/22 14:16:30;;;;;;;10.63;4.88;;;;;;;;;;6156406;23;20424;-65
2022/05/22 14:19:14;;;;;;;9.13;4.03;;;;;;;;;;6155986;23;20006;-65
2022/05/22 14:21:45;;;;;;;27.10;18.58;;;;;;;;;;6155896;23;19998;-66
2022/05/22 14:27:24;;;;;;;9.63;6.25;;;;;;;;;;6155955;23;20056;-63
2022/05/22 14:29:50;;;;;;;10.88;5.55;;;;;;;;;;6156273;23;20005;-65
2022/05/22 14:32:19;;;;;;;12.50;5.07;;;;;;;;;;6155686;23;20025;-65
2022/05/22 14:34:45;;;;;;;20.77;13.68;;;;;;;;;;6155778;23;20009;-65
2022/05/22 14:37:12;;;;;;;12.38;7.72;;;;;;;;;;6156121;23;20072;-63
2022/05/22 14:39:48;;;;;;;30.75;15.35;;;;;;;;;;6155673;23;20429;-63
2022/05/22 14:42:16;;;;;;;11.95;4.43;;;;;;;;;;6156241;23;20006;-65
2022/05/22 14:44:42;;;;;;;8.82;6.88;;;;;;;;;;6155681;23;20002;-67
2022/05/22 14:47:08;;;;;;;16.15;9.98;;;;;;;;;;6156066;23;20013;-65
2022/05/22 14:50:00;;;;;;;11.55;9.27;;;;;;;;;;6155723;23;19997;-66